Ana Sayfa
METAR-TAF:

METAR-TAF

Havaalanları :

North Battleford, Saskatchewan, Kanada

Enlem: 52-46N, Boylam: 108-15W, yükseklik: 548 m

Güncel hava durumu gözlemi

Rapor saat 18:00 UTC de 1 saat ve 19 dakika önce yapıldı.
Rüzgar batı/kuzeybatıdan 5 kt
Sıcaklık -11°C
Nem 72%
Basınç 1022 hPa
Görüş mesafesi: 14.5 km
Açık gökyüzü

METAR: CYQW 241800Z AUTO 30005KT 9SM CLR M11/M15 A3019 RMK SLP271

Saat: 13:19 (19:19 UTC)

Tahmin

Rapor saat 17:38 UTC de 1 saat ve 41 dakika önce yapıldı.
Ayın 24'si saat 18 UTC'den ayın 25'si saat 06 UTC'ye kadar geçerli Tahmin
Rüzgar kuzeybatıdan 8 kt
Görüş mesafesi: 10 km
24000 ft yükseklikte az bulutlu
Ayın 25'si saat 0300 UTC'den
Rüzgar batı/kuzeybatıdan 6 kt
Görüş mesafesi: 10 km
3000 ft yükseklikte az bulutlu

TAF: CYQW 241738Z 2418/2506 31008KT P6SM FEW240 FM250300 30006KT P6SM FEW030 RMK FCST BASED ON AUTO OBS. NXT FCST BY 250000Z

4.000'den fazla havaalanı için hava durumu gözlemleri ve tahminleri (METAR ve TAF raporları).

Kullanılabilir istasyonlar harita üzerinde sarı ve kırmızı noktalarla gösterilir.

İstasyonun adını görmek için fareyi noktanın üzerinde gezdirin.

Sonrasında hava gözlem ve tahminlerini görmek için tıklayın.

Haritayı değiştirmek için: yaklaştırmak için siyah artı işaretli yeşil düğmeye ve uzaklaştırmak için de eksi işaretli düğmeye hızla tıklayın; bitişik haritalar için yeşil okları kullanın.


METAR-TAF: